createdAt,value
2022-10-23T00:00:39.810Z,13.55
2022-10-23T00:02:30.422Z,11.98
2022-10-23T00:04:22.169Z,12.75
2022-10-23T00:06:14.904Z,14.27
2022-10-23T00:08:05.596Z,14.00
2022-10-23T00:09:56.002Z,14.23
2022-10-23T00:11:46.928Z,13.00
2022-10-23T00:13:37.451Z,14.63
2022-10-23T00:15:28.033Z,15.50
2022-10-23T00:17:18.292Z,16.92
2022-10-23T00:19:08.677Z,15.55
2022-10-23T00:20:59.591Z,13.82
2022-10-23T00:22:51.577Z,15.40
2022-10-23T00:24:42.262Z,14.48
2022-10-23T00:26:32.753Z,16.23
2022-10-23T00:28:23.345Z,16.10
2022-10-23T00:30:14.071Z,16.27
2022-10-23T00:32:04.537Z,15.38
2022-10-23T00:33:54.891Z,14.35
2022-10-23T00:35:45.485Z,16.60
2022-10-23T00:37:36.032Z,16.25
2022-10-23T00:39:27.735Z,18.20
2022-10-23T00:41:20.043Z,16.80
2022-10-23T00:43:17.734Z,16.88
2022-10-23T00:45:13.283Z,16.48
2022-10-23T00:47:03.561Z,16.90
2022-10-23T00:48:53.865Z,16.95
2022-10-23T00:50:44.982Z,17.77
2022-10-23T00:52:41.285Z,17.73
2022-10-23T00:54:34.948Z,16.73
2022-10-23T00:56:26.418Z,14.75
2022-10-23T00:58:19.665Z,15.97
2022-10-23T01:00:14.738Z,15.68
2022-10-23T01:02:06.084Z,16.13
2022-10-23T01:03:56.716Z,16.00
2022-10-23T01:05:50.332Z,15.80
2022-10-23T01:07:48.187Z,16.52
2022-10-23T01:09:46.316Z,15.90
2022-10-23T01:11:40.990Z,15.80
2022-10-23T01:13:37.815Z,14.75
2022-10-23T01:15:32.011Z,16.52
2022-10-23T01:17:27.957Z,17.70
2022-10-23T01:19:24.829Z,16.42
2022-10-23T01:21:20.873Z,18.50
2022-10-23T01:23:42.885Z,16.88
2022-10-23T01:25:47.628Z,16.90
2022-10-23T01:27:41.984Z,15.15
2022-10-23T01:29:36.867Z,16.30
2022-10-23T01:31:32.651Z,18.75
2022-10-23T01:33:27.439Z,17.90
2022-10-23T01:35:21.844Z,18.65
2022-10-23T01:37:16.115Z,17.00
2022-10-23T01:39:08.821Z,16.80
2022-10-23T01:41:02.229Z,16.75
2022-10-23T01:42:57.378Z,15.82
2022-10-23T01:44:50.890Z,15.57
2022-10-23T01:46:42.298Z,16.73
2022-10-23T01:48:34.409Z,20.80
2022-10-23T01:50:25.349Z,18.67
2022-10-23T01:52:17.884Z,18.02
2022-10-23T01:54:10.514Z,16.33
2022-10-23T01:56:03.494Z,16.52
2022-10-23T01:57:55.225Z,16.13
2022-10-23T01:59:47.393Z,16.45
2022-10-23T02:01:41.332Z,16.05
2022-10-23T02:03:33.388Z,16.40
2022-10-23T02:05:25.670Z,17.23
2022-10-23T02:07:15.927Z,16.40
2022-10-23T02:09:06.807Z,17.05
2022-10-23T02:11:02.205Z,15.75
2022-10-23T02:13:00.443Z,14.90
2022-10-23T02:14:53.379Z,17.55
2022-10-23T02:16:47.312Z,15.07
2022-10-23T02:18:40.419Z,15.23
2022-10-23T02:20:37.221Z,15.70
2022-10-23T02:22:29.835Z,16.45
2022-10-23T02:26:16.566Z,17.33
2022-10-23T02:28:10.905Z,16.40
2022-10-23T02:30:04.609Z,16.10
2022-10-23T02:31:55.153Z,18.33
2022-10-23T02:33:46.203Z,18.92
2022-10-23T02:35:36.500Z,17.75
2022-10-23T02:37:26.891Z,16.63
2022-10-23T02:39:17.478Z,18.48
2022-10-23T02:41:16.656Z,18.23
2022-10-23T02:43:13.143Z,19.65
2022-10-23T02:45:08.006Z,18.52
2022-10-23T02:47:09.212Z,18.77
2022-10-23T02:49:06.489Z,18.25
2022-10-23T02:50:59.974Z,16.63
2022-10-23T02:52:57.655Z,16.33
2022-10-23T02:54:56.730Z,18.20
2022-10-23T02:56:55.612Z,17.33
2022-10-23T02:58:54.004Z,15.15
2022-10-23T03:00:48.808Z,15.43
2022-10-23T03:02:41.157Z,15.57
2022-10-23T03:06:22.758Z,15.13
2022-10-23T03:08:14.479Z,14.35
2022-10-23T03:10:05.820Z,15.30
2022-10-23T03:11:56.355Z,16.15
2022-10-23T03:13:48.382Z,15.85
2022-10-23T03:15:38.767Z,17.25
2022-10-23T03:17:29.072Z,16.20
2022-10-23T03:19:19.453Z,16.23
2022-10-23T03:21:10.190Z,15.40
2022-10-23T03:23:00.627Z,15.25
2022-10-23T03:24:50.891Z,15.98
2022-10-23T03:26:41.241Z,14.60
2022-10-23T03:28:31.523Z,15.00
2022-10-23T03:30:23.380Z,14.95
2022-10-23T03:32:14.039Z,14.88
2022-10-23T03:34:08.131Z,15.15
2022-10-23T03:35:59.212Z,18.38
2022-10-23T03:37:49.551Z,18.13
2022-10-23T03:39:40.104Z,15.38
2022-10-23T03:41:30.384Z,16.20
2022-10-23T03:43:20.905Z,16.30
2022-10-23T03:45:11.101Z,14.52
2022-10-23T03:47:03.167Z,15.10
2022-10-23T03:48:53.439Z,15.63
2022-10-23T03:50:43.748Z,13.98
2022-10-23T03:52:34.473Z,13.50
2022-10-23T03:54:26.453Z,14.15
2022-10-23T03:56:16.926Z,15.13
2022-10-23T03:58:07.381Z,13.23
2022-10-23T03:59:58.060Z,14.00
2022-10-23T04:01:48.791Z,13.50
2022-10-23T04:03:40.627Z,12.80
2022-10-23T04:05:30.907Z,13.32
2022-10-23T04:07:21.258Z,14.15
2022-10-23T04:11:03.889Z,12.82
2022-10-23T04:12:54.314Z,13.27
2022-10-23T04:14:45.039Z,13.35
2022-10-23T04:16:35.429Z,12.38
2022-10-23T04:18:25.738Z,11.68
2022-10-23T04:20:17.817Z,12.48
2022-10-23T04:22:08.338Z,11.55
2022-10-23T04:23:58.513Z,12.27
2022-10-23T04:27:39.378Z,12.80
2022-10-23T04:29:30.055Z,11.27
2022-10-23T04:31:20.283Z,11.90
2022-10-23T04:33:11.041Z,12.88
2022-10-23T04:35:01.657Z,12.75
2022-10-23T04:36:53.655Z,10.95
2022-10-23T04:38:44.047Z,10.70
2022-10-23T04:40:34.622Z,12.02
2022-10-23T04:44:16.034Z,11.15
2022-10-23T04:46:06.692Z,10.65
2022-10-23T04:47:57.462Z,10.50
2022-10-23T04:49:47.637Z,10.48
2022-10-23T04:51:38.394Z,9.93
2022-10-23T04:53:30.656Z,10.30
2022-10-23T04:55:21.452Z,9.60
2022-10-23T04:57:12.097Z,10.05
2022-10-23T04:59:02.743Z,9.98
2022-10-23T05:00:53.581Z,10.15
2022-10-23T05:02:44.493Z,10.57
2022-10-23T05:04:35.291Z,9.35
2022-10-23T05:06:25.833Z,9.85
2022-10-23T05:08:18.056Z,10.77
2022-10-23T05:10:10.673Z,10.05
2022-10-23T05:13:51.484Z,10.02
2022-10-23T05:17:40.602Z,11.38
2022-10-23T05:19:36.182Z,10.52
2022-10-23T05:21:29.895Z,10.50
2022-10-23T05:23:22.574Z,10.93
2022-10-23T05:25:14.243Z,9.90
2022-10-23T05:27:04.825Z,9.93
2022-10-23T05:28:55.400Z,10.50
2022-10-23T05:30:45.966Z,10.38
2022-10-23T05:32:36.853Z,9.98
2022-10-23T05:34:28.493Z,11.18
2022-10-23T05:36:19.046Z,11.02
2022-10-23T05:38:09.641Z,9.68
2022-10-23T05:40:00.209Z,10.40
2022-10-23T05:41:52.203Z,9.77
2022-10-23T05:43:42.568Z,11.35
2022-10-23T05:45:32.829Z,10.43
2022-10-23T05:47:23.387Z,11.05
2022-10-23T05:49:14.138Z,11.00
2022-10-23T05:51:05.215Z,9.93
2022-10-23T05:52:58.290Z,9.95
2022-10-23T05:54:50.879Z,11.27
2022-10-23T05:56:41.339Z,10.65
2022-10-23T05:58:33.209Z,10.23
2022-10-23T06:00:23.497Z,11.02
2022-10-23T06:02:13.892Z,11.13
2022-10-23T06:04:05.375Z,9.70
2022-10-23T06:05:56.340Z,9.77
2022-10-23T06:07:46.787Z,10.60
2022-10-23T06:09:37.575Z,10.10
2022-10-23T06:11:28.177Z,10.55
2022-10-23T06:13:18.464Z,10.45
2022-10-23T06:15:11.374Z,9.70
2022-10-23T06:17:01.780Z,10.13
2022-10-23T06:18:52.186Z,10.77
2022-10-23T06:20:42.523Z,10.75
2022-10-23T06:22:33.854Z,9.73
2022-10-23T06:24:25.198Z,9.68
2022-10-23T06:26:17.554Z,10.30
2022-10-23T06:28:08.275Z,10.90
2022-10-23T06:29:58.802Z,10.48
2022-10-23T06:31:50.368Z,10.27
2022-10-23T06:33:41.181Z,10.43
2022-10-23T06:35:31.642Z,11.25
2022-10-23T06:37:21.838Z,11.15
2022-10-23T06:39:12.127Z,10.30
2022-10-23T06:41:03.499Z,10.35
2022-10-23T06:42:55.624Z,11.75
2022-10-23T06:46:36.460Z,11.93
2022-10-23T06:48:28.376Z,10.40
2022-10-23T06:50:19.150Z,10.38
2022-10-23T06:52:14.445Z,10.68
2022-10-23T06:54:13.581Z,11.40
2022-10-23T06:56:05.300Z,10.35
2022-10-23T06:57:55.561Z,10.98
2022-10-23T06:59:45.965Z,12.50
2022-10-23T07:01:39.039Z,10.38
2022-10-23T07:03:31.421Z,13.35
2022-10-23T07:05:22.225Z,11.38
2022-10-23T07:07:12.554Z,10.68
2022-10-23T07:09:03.758Z,11.68
2022-10-23T07:10:54.453Z,11.65
2022-10-23T07:12:45.336Z,11.25
2022-10-23T07:14:35.991Z,11.70
2022-10-23T07:16:26.681Z,11.77
2022-10-23T07:18:17.145Z,12.45
2022-10-23T07:20:09.495Z,11.52
2022-10-23T07:22:01.600Z,11.10
2022-10-23T07:23:51.854Z,11.77
2022-10-23T07:25:42.796Z,11.02
2022-10-23T07:27:36.462Z,11.77
2022-10-23T07:29:27.825Z,12.57
2022-10-23T07:31:18.318Z,11.75
2022-10-23T07:33:08.710Z,12.85
2022-10-23T07:34:59.368Z,12.55
2022-10-23T07:36:51.008Z,11.50
2022-10-23T07:38:41.731Z,11.73
2022-10-23T07:40:31.978Z,11.68
2022-10-23T07:42:22.432Z,11.10
2022-10-23T07:44:12.846Z,11.75
2022-10-23T07:46:04.070Z,12.38
2022-10-23T07:47:54.345Z,12.43
2022-10-23T07:49:44.667Z,11.63
2022-10-23T07:51:35.400Z,10.85
2022-10-23T07:53:27.920Z,11.52
2022-10-23T07:55:18.737Z,12.57
2022-10-23T07:57:10.343Z,11.20
2022-10-23T07:59:00.668Z,13.25
2022-10-23T08:00:54.986Z,11.77
2022-10-23T08:02:45.607Z,12.75
2022-10-23T08:04:36.285Z,12.30
2022-10-23T08:06:26.741Z,12.05
2022-10-23T08:08:17.354Z,10.93
2022-10-23T08:10:09.624Z,11.18
2022-10-23T08:13:50.495Z,12.02
2022-10-23T08:15:41.693Z,12.27
2022-10-23T08:17:32.180Z,11.45
2022-10-23T08:19:22.704Z,11.25
2022-10-23T08:21:13.292Z,12.23
2022-10-23T08:23:03.811Z,11.30
2022-10-23T08:24:54.261Z,11.90
2022-10-23T08:26:45.853Z,12.07
2022-10-23T08:28:36.324Z,11.55
2022-10-23T08:30:26.758Z,11.90
2022-10-23T08:32:17.090Z,10.98
2022-10-23T08:34:07.641Z,11.27
2022-10-23T08:36:00.975Z,10.85
2022-10-23T08:37:51.356Z,11.27
2022-10-23T08:39:41.672Z,12.38
2022-10-23T08:41:33.910Z,12.32
2022-10-23T08:45:28.923Z,10.35
2022-10-23T08:47:25.165Z,12.77
2022-10-23T08:49:23.904Z,11.73
2022-10-23T08:51:18.032Z,11.63
2022-10-23T08:53:15.786Z,10.60
2022-10-23T08:55:16.167Z,9.60
2022-10-23T08:57:11.235Z,10.13
2022-10-23T08:59:10.008Z,10.18
2022-10-23T09:01:00.489Z,10.38
2022-10-23T09:02:52.933Z,10.68
2022-10-23T09:04:46.287Z,10.25
2022-10-23T09:06:40.749Z,10.48
2022-10-23T09:08:41.948Z,9.77
2022-10-23T09:10:41.893Z,10.07
2022-10-23T09:12:32.969Z,10.75
2022-10-23T09:14:42.556Z,9.70
2022-10-23T09:16:43.802Z,9.63
2022-10-23T09:18:35.153Z,10.10
2022-10-23T09:20:27.225Z,9.30
2022-10-23T09:22:17.987Z,10.18
2022-10-23T09:24:14.566Z,9.98
2022-10-23T09:26:12.388Z,9.00
2022-10-23T09:28:05.541Z,8.73
2022-10-23T09:29:57.817Z,9.20
2022-10-23T09:31:49.045Z,9.10
2022-10-23T09:33:40.148Z,9.98
2022-10-23T09:35:30.847Z,9.32
2022-10-23T09:37:24.320Z,9.07
2022-10-23T09:39:23.518Z,8.77
2022-10-23T09:41:17.673Z,8.63
2022-10-23T09:43:15.004Z,8.52
2022-10-23T09:45:28.844Z,8.32
2022-10-23T09:47:20.545Z,8.00
2022-10-23T09:49:18.978Z,8.05
2022-10-23T09:51:17.819Z,8.80
2022-10-23T09:53:15.691Z,7.60
2022-10-23T09:55:19.730Z,7.88
2022-10-23T09:57:21.838Z,8.07
2022-10-23T09:59:21.702Z,8.10
2022-10-23T10:01:25.963Z,8.88
2022-10-23T10:03:21.516Z,9.38
2022-10-23T10:05:22.697Z,9.07
2022-10-23T10:07:19.220Z,8.63
2022-10-23T10:09:12.941Z,8.20
2022-10-23T10:11:07.294Z,8.02
2022-10-23T10:13:00.192Z,7.72
2022-10-23T10:14:58.775Z,7.90
2022-10-23T10:16:52.112Z,7.90
2022-10-23T10:18:47.722Z,7.45
2022-10-23T10:20:49.266Z,8.18
2022-10-23T10:22:42.311Z,7.78
2022-10-23T10:24:37.860Z,8.25
2022-10-23T10:26:36.401Z,6.95
2022-10-23T10:28:48.005Z,7.95
2022-10-23T10:30:44.345Z,8.80
2022-10-23T10:32:40.635Z,8.52
2022-10-23T10:34:41.489Z,7.25
2022-10-23T10:36:43.809Z,7.18
2022-10-23T10:38:44.659Z,7.43
2022-10-23T10:40:37.903Z,7.68
2022-10-23T10:42:47.980Z,7.80
2022-10-23T10:44:48.599Z,7.15
2022-10-23T10:46:44.131Z,7.47
2022-10-23T10:48:41.474Z,8.18
2022-10-23T10:50:39.714Z,7.25
2022-10-23T10:52:35.729Z,7.47
2022-10-23T10:54:36.459Z,6.85
2022-10-23T10:56:29.474Z,7.57
2022-10-23T10:58:23.587Z,6.80
2022-10-23T11:00:17.071Z,6.95
2022-10-23T11:02:20.439Z,7.03
2022-10-23T11:04:18.128Z,6.70
2022-10-23T11:06:13.428Z,6.70
2022-10-23T11:08:07.728Z,6.95
2022-10-23T11:09:59.208Z,7.28
2022-10-23T11:11:50.127Z,7.07
2022-10-23T11:13:43.113Z,6.80
2022-10-23T11:15:38.279Z,6.80
2022-10-23T11:17:35.674Z,7.15
2022-10-23T11:19:30.257Z,6.63
2022-10-23T11:21:27.906Z,7.38
2022-10-23T11:23:48.292Z,6.72
2022-10-23T11:25:57.127Z,6.72
2022-10-23T11:27:56.539Z,7.70
2022-10-23T11:30:06.662Z,6.22
2022-10-23T11:32:21.733Z,6.05
2022-10-23T11:34:41.586Z,6.15
2022-10-23T11:36:44.605Z,6.50
2022-10-23T11:38:35.622Z,5.38
2022-10-23T11:40:26.497Z,5.85
2022-10-23T11:42:30.897Z,6.22
2022-10-23T11:44:42.050Z,6.35
2022-10-23T11:46:34.127Z,5.82
2022-10-23T11:48:36.175Z,6.28
2022-10-23T11:50:30.808Z,5.65
2022-10-23T11:52:22.796Z,5.60
2022-10-23T11:54:24.366Z,5.55
2022-10-23T11:56:28.093Z,5.60
2022-10-23T11:58:23.319Z,5.53
2022-10-23T12:00:21.079Z,5.03
2022-10-23T12:02:25.688Z,5.35
2022-10-23T12:04:23.374Z,5.05
2022-10-23T12:06:22.369Z,5.43
2022-10-23T12:08:22.566Z,5.53
2022-10-23T12:10:20.735Z,4.65
2022-10-23T12:12:25.155Z,5.45
2022-10-23T12:14:29.504Z,4.93
2022-10-23T12:16:20.000Z,4.30
2022-10-23T12:18:14.958Z,4.88
2022-10-23T12:20:27.876Z,4.40
2022-10-23T12:22:19.735Z,4.60
2022-10-23T12:24:22.155Z,4.93
2022-10-23T12:26:55.112Z,5.15
2022-10-23T12:28:50.678Z,4.07
2022-10-23T12:30:44.573Z,4.85
2022-10-23T12:32:46.712Z,4.50
2022-10-23T12:34:45.798Z,4.50
2022-10-23T12:37:01.644Z,4.35
2022-10-23T12:38:53.408Z,4.20
2022-10-23T12:40:45.269Z,4.28
2022-10-23T12:42:36.472Z,4.10
2022-10-23T12:44:27.592Z,4.22
2022-10-23T12:46:36.093Z,4.18
2022-10-23T12:48:26.461Z,3.70
2022-10-23T12:50:19.616Z,4.40
2022-10-23T12:52:16.044Z,4.30
2022-10-23T12:54:16.261Z,4.03
2022-10-23T12:56:10.404Z,4.47
2022-10-23T12:58:00.943Z,3.92
2022-10-23T12:59:54.994Z,4.00
2022-10-23T13:01:49.121Z,4.20
2022-10-23T13:03:42.463Z,4.60
2022-10-23T13:05:33.067Z,4.57
2022-10-23T13:07:26.390Z,3.90
2022-10-23T13:09:29.107Z,4.65
2022-10-23T13:13:13.049Z,4.15
2022-10-23T13:15:16.286Z,3.90
2022-10-23T13:17:08.754Z,4.75
2022-10-23T13:18:59.587Z,3.85
2022-10-23T13:20:59.943Z,3.90
2022-10-23T13:23:00.291Z,4.10
2022-10-23T13:24:52.567Z,4.50
2022-10-23T13:26:43.448Z,3.67
2022-10-23T13:28:34.996Z,3.85
2022-10-23T13:30:30.554Z,4.80
2022-10-23T13:32:23.828Z,3.83
2022-10-23T13:34:31.968Z,3.95
2022-10-23T13:36:23.829Z,4.65
2022-10-23T13:38:14.556Z,3.85
2022-10-23T13:40:17.691Z,3.92
2022-10-23T13:42:13.249Z,3.63
2022-10-23T13:44:03.918Z,4.00
2022-10-23T13:45:54.339Z,4.15
2022-10-23T13:47:45.293Z,3.92
2022-10-23T13:49:36.313Z,3.67
2022-10-23T13:51:28.671Z,3.67
2022-10-23T13:53:19.641Z,4.07
2022-10-23T13:55:18.737Z,3.78
2022-10-23T13:57:13.117Z,3.75
2022-10-23T13:59:03.482Z,4.03
2022-10-23T14:00:54.321Z,4.43
2022-10-23T14:02:44.902Z,4.78
2022-10-23T14:04:35.763Z,4.18
2022-10-23T14:06:26.405Z,3.72
2022-10-23T14:08:17.620Z,3.28
2022-10-23T14:10:08.494Z,3.72
2022-10-23T14:12:00.296Z,3.67
2022-10-23T14:13:50.607Z,3.92
2022-10-23T14:15:43.875Z,3.70
2022-10-23T14:17:35.104Z,3.75
2022-10-23T14:19:26.100Z,3.95
2022-10-23T14:21:18.695Z,3.47
2022-10-23T14:24:59.207Z,3.70
2022-10-23T14:26:49.672Z,3.70
2022-10-23T14:28:41.898Z,4.05
2022-10-23T14:30:32.380Z,3.67
2022-10-23T14:32:23.303Z,3.80
2022-10-23T14:34:13.935Z,3.70
2022-10-23T14:36:04.765Z,3.80
2022-10-23T14:37:55.342Z,4.07
2022-10-23T14:39:49.749Z,3.50
2022-10-23T14:41:40.703Z,3.45
2022-10-23T14:43:30.799Z,3.55
2022-10-23T14:45:22.448Z,3.67
2022-10-23T14:47:12.837Z,4.07
2022-10-23T14:49:03.174Z,3.63
2022-10-23T14:50:53.586Z,3.95
2022-10-23T14:52:43.876Z,4.00
2022-10-23T14:54:34.666Z,3.78
2022-10-23T14:56:25.612Z,3.65
2022-10-23T14:58:16.032Z,3.95
2022-10-23T15:00:07.578Z,3.45
2022-10-23T15:02:02.235Z,3.75
2022-10-23T15:03:52.576Z,3.42
2022-10-23T15:05:42.937Z,3.50
2022-10-23T15:07:33.333Z,3.85
2022-10-23T15:09:23.807Z,3.65
2022-10-23T15:11:14.311Z,3.92
2022-10-23T15:13:04.901Z,4.15
2022-10-23T15:14:55.182Z,3.50
2022-10-23T15:16:45.818Z,4.35
2022-10-23T15:20:33.192Z,4.28
2022-10-23T15:22:24.159Z,3.80
2022-10-23T15:24:15.195Z,3.83
2022-10-23T15:26:06.854Z,3.85
2022-10-23T15:27:57.622Z,4.13
2022-10-23T15:29:48.325Z,4.10
2022-10-23T15:31:44.148Z,3.78
2022-10-23T15:33:34.769Z,3.97
2022-10-23T15:37:22.209Z,4.18
2022-10-23T15:39:14.656Z,4.10
2022-10-23T15:41:14.622Z,4.10
2022-10-23T15:43:05.313Z,4.50
2022-10-23T15:44:55.571Z,4.03
2022-10-23T15:46:46.473Z,3.65
2022-10-23T15:48:37.166Z,4.10
2022-10-23T15:50:29.151Z,3.80
2022-10-23T15:54:13.814Z,4.60
2022-10-23T15:56:04.715Z,3.65
2022-10-23T15:57:55.070Z,3.83
2022-10-23T15:59:45.579Z,3.88
2022-10-23T16:01:35.890Z,4.10
2022-10-23T16:03:26.274Z,3.38
2022-10-23T16:05:16.874Z,3.75
2022-10-23T16:07:08.825Z,4.15
2022-10-23T16:10:50.398Z,3.72
2022-10-23T16:12:41.178Z,3.70
2022-10-23T16:14:31.739Z,3.50
2022-10-23T16:16:22.074Z,4.15
2022-10-23T16:18:12.478Z,3.40
2022-10-23T16:20:02.832Z,3.67
2022-10-23T16:21:53.004Z,4.30
2022-10-23T16:23:45.168Z,4.03
2022-10-23T16:27:25.877Z,3.72
2022-10-23T16:29:16.257Z,3.83
2022-10-23T16:31:09.512Z,4.10
2022-10-23T16:33:00.053Z,4.03
2022-10-23T16:34:50.701Z,3.95
2022-10-23T16:36:41.095Z,4.10
2022-10-23T16:38:31.722Z,3.63
2022-10-23T16:40:23.753Z,4.45
2022-10-23T16:42:14.255Z,3.45
2022-10-23T16:44:04.695Z,3.88
2022-10-23T16:46:03.139Z,4.10
2022-10-23T16:47:53.733Z,3.50
2022-10-23T16:49:44.570Z,4.03
2022-10-23T16:51:35.258Z,4.50
2022-10-23T16:53:26.145Z,3.90
2022-10-23T16:55:16.695Z,3.67
2022-10-23T16:57:08.207Z,4.50
2022-10-23T17:00:57.956Z,4.38
2022-10-23T17:02:48.409Z,3.83
2022-10-23T17:04:39.264Z,4.03
2022-10-23T17:06:31.637Z,3.90
2022-10-23T17:08:22.184Z,4.20
2022-10-23T17:10:12.580Z,4.85
2022-10-23T17:12:02.970Z,4.53
2022-10-23T17:13:59.081Z,4.85
2022-10-23T17:15:50.064Z,4.03
2022-10-23T17:17:40.484Z,3.88
2022-10-23T17:19:46.966Z,4.88
2022-10-23T17:21:40.582Z,3.95
2022-10-23T17:23:31.234Z,4.82
2022-10-23T17:25:22.008Z,4.25
2022-10-23T17:27:12.653Z,4.25
2022-10-23T17:29:06.124Z,4.22
2022-10-23T17:30:56.967Z,4.10
2022-10-23T17:32:47.701Z,5.00
2022-10-23T17:34:38.391Z,4.38
2022-10-23T17:36:30.112Z,4.50
2022-10-23T17:38:20.530Z,4.07
2022-10-23T17:40:11.818Z,4.18
2022-10-23T17:42:02.373Z,4.82
2022-10-23T17:43:56.052Z,4.22
2022-10-23T17:45:48.066Z,4.05
2022-10-23T17:47:38.504Z,4.18
2022-10-23T17:49:29.208Z,4.38
2022-10-23T17:51:20.804Z,4.53
2022-10-23T17:53:11.186Z,4.50
2022-10-23T17:55:01.897Z,4.07
2022-10-23T17:56:52.707Z,4.32
2022-10-23T17:58:43.317Z,4.10
2022-10-23T18:00:35.638Z,4.18
2022-10-23T18:02:27.811Z,4.68
2022-10-23T18:04:19.920Z,4.60
2022-10-23T18:08:01.855Z,4.35
2022-10-23T18:09:52.388Z,4.30
2022-10-23T18:11:46.826Z,4.60
2022-10-23T18:13:38.942Z,4.35
2022-10-23T18:15:29.326Z,4.80
2022-10-23T18:17:20.006Z,4.45
2022-10-23T18:19:12.044Z,4.72
2022-10-23T18:21:05.362Z,5.00
2022-10-23T18:22:56.107Z,4.47
2022-10-23T18:24:46.656Z,5.40
2022-10-23T18:26:37.107Z,5.07
2022-10-23T18:28:28.589Z,4.55
2022-10-23T18:30:19.017Z,5.65
2022-10-23T18:32:09.321Z,5.20
2022-10-23T18:34:01.321Z,5.72
2022-10-23T18:35:53.542Z,5.75
2022-10-23T18:37:44.227Z,6.55
2022-10-23T18:39:34.729Z,6.13
2022-10-23T18:41:25.711Z,6.50
2022-10-23T18:43:31.319Z,6.60
2022-10-23T18:45:27.133Z,6.82
2022-10-23T18:47:17.644Z,6.47
2022-10-23T18:49:09.753Z,10.00
2022-10-23T18:51:01.901Z,9.18
2022-10-23T18:52:52.814Z,8.15
2022-10-23T18:54:43.801Z,3.83
2022-10-23T18:56:34.935Z,2.20
2022-10-23T18:58:25.606Z,2.90
2022-10-23T19:00:22.310Z,2.90
2022-10-23T19:02:19.536Z,2.47
2022-10-23T19:04:10.835Z,2.53
2022-10-23T19:06:08.068Z,2.60
2022-10-23T19:08:02.976Z,3.15
2022-10-23T19:09:53.925Z,2.97
2022-10-23T19:11:44.840Z,2.92
2022-10-23T19:13:38.136Z,3.20
2022-10-23T19:15:32.808Z,3.10
2022-10-23T19:17:25.788Z,3.10
2022-10-23T19:19:18.754Z,4.03
2022-10-23T19:21:13.133Z,5.50
2022-10-23T19:23:07.589Z,4.85
2022-10-23T19:25:02.489Z,4.80
2022-10-23T19:26:54.860Z,5.32
2022-10-23T19:28:47.447Z,6.45
2022-10-23T19:30:37.950Z,7.05
2022-10-23T19:32:28.630Z,8.32
2022-10-23T19:34:20.490Z,6.72
2022-10-23T19:36:14.354Z,5.47
2022-10-23T19:38:05.234Z,6.53
2022-10-23T19:39:56.160Z,5.00
2022-10-23T19:41:47.391Z,6.95
2022-10-23T19:43:37.916Z,4.78
2022-10-23T19:45:28.774Z,5.20
2022-10-23T19:47:19.128Z,6.28
2022-10-23T19:49:10.121Z,5.95
2022-10-23T19:51:01.663Z,5.50
2022-10-23T19:52:53.489Z,6.40
2022-10-23T19:54:44.510Z,6.00
2022-10-23T19:56:36.207Z,5.30
2022-10-23T19:58:26.768Z,5.80
2022-10-23T20:00:19.212Z,5.30
2022-10-23T20:02:10.353Z,6.90
2022-10-23T20:04:00.991Z,6.10
2022-10-23T20:05:51.589Z,4.88
2022-10-23T20:07:42.703Z,5.13
2022-10-23T20:09:35.470Z,3.57
2022-10-23T20:11:29.568Z,3.67
2022-10-23T20:13:20.882Z,3.53
2022-10-23T20:15:13.263Z,4.10
2022-10-23T20:17:03.724Z,2.75
2022-10-23T20:18:54.351Z,2.90
2022-10-23T20:20:44.882Z,2.60
2022-10-23T20:22:35.400Z,2.85
2022-10-23T20:24:26.159Z,2.78
2022-10-23T20:26:19.719Z,3.20
2022-10-23T20:28:12.894Z,3.17
2022-10-23T20:30:07.635Z,3.90
2022-10-23T20:31:58.447Z,3.58
2022-10-23T20:33:54.171Z,3.88
2022-10-23T20:35:44.939Z,3.63
2022-10-23T20:37:35.471Z,3.58
2022-10-23T20:39:26.412Z,4.00
2022-10-23T20:41:18.623Z,4.80
2022-10-23T20:43:09.394Z,3.80
2022-10-23T20:45:00.193Z,3.97
2022-10-23T20:46:50.896Z,4.18
2022-10-23T20:48:43.465Z,4.45
2022-10-23T20:50:34.779Z,4.28
2022-10-23T20:52:25.296Z,5.30
2022-10-23T20:54:18.441Z,5.82
2022-10-23T20:56:11.713Z,5.00
2022-10-23T20:58:03.963Z,5.38
2022-10-23T20:59:54.358Z,5.05
2022-10-23T21:01:46.754Z,5.10
2022-10-23T21:03:37.745Z,6.45
2022-10-23T21:05:28.525Z,4.72
2022-10-23T21:07:18.990Z,4.93
2022-10-23T21:09:14.577Z,4.97
2022-10-23T21:11:05.888Z,3.65
2022-10-23T21:12:56.155Z,4.45
2022-10-23T21:14:48.163Z,4.60
2022-10-23T21:16:41.390Z,4.25
2022-10-23T21:18:45.651Z,4.05
2022-10-23T21:20:37.132Z,3.80
2022-10-23T21:22:27.646Z,3.85
2022-10-23T21:24:19.759Z,3.65
2022-10-23T21:28:00.838Z,3.25
2022-10-23T21:29:52.937Z,3.22
2022-10-23T21:31:43.459Z,3.47
2022-10-23T21:33:35.061Z,3.28
2022-10-23T21:35:27.810Z,3.30
2022-10-23T21:37:20.865Z,3.55
2022-10-23T21:39:12.384Z,3.33
2022-10-23T21:41:06.893Z,3.33
2022-10-23T21:42:57.815Z,3.58
2022-10-23T21:44:48.056Z,3.20
2022-10-23T21:46:40.036Z,3.08
2022-10-23T21:48:30.730Z,3.50
2022-10-23T21:50:21.102Z,2.97
2022-10-23T21:52:13.958Z,3.22
2022-10-23T21:54:08.298Z,2.97
2022-10-23T21:56:02.517Z,3.22
2022-10-23T21:57:52.902Z,3.17
2022-10-23T21:59:44.617Z,3.05
2022-10-23T22:01:35.790Z,2.90
2022-10-23T22:03:28.436Z,3.17
2022-10-23T22:05:19.394Z,2.92
2022-10-23T22:07:10.300Z,3.20
2022-10-23T22:09:00.563Z,3.20
2022-10-23T22:10:51.081Z,2.80
2022-10-23T22:12:41.849Z,3.13
2022-10-23T22:14:32.600Z,3.40
2022-10-23T22:16:23.390Z,3.08
2022-10-23T22:18:14.207Z,3.00
2022-10-23T22:20:07.626Z,2.60
2022-10-23T22:21:58.290Z,2.65
2022-10-23T22:23:49.944Z,2.85
2022-10-23T22:25:40.482Z,2.30
2022-10-23T22:27:30.755Z,2.30
2022-10-23T22:29:23.793Z,2.30
2022-10-23T22:31:15.156Z,2.90
2022-10-23T22:33:05.516Z,2.30
2022-10-23T22:34:55.976Z,2.42
2022-10-23T22:36:47.721Z,2.10
2022-10-23T22:38:38.356Z,2.45
2022-10-23T22:40:28.988Z,2.20
2022-10-23T22:42:19.298Z,2.33
2022-10-23T22:44:11.166Z,2.40
2022-10-23T22:46:03.099Z,2.40
2022-10-23T22:47:53.471Z,2.00
2022-10-23T22:49:43.905Z,2.92
2022-10-23T22:51:35.347Z,1.95
2022-10-23T22:53:27.461Z,2.17
2022-10-23T22:55:18.003Z,2.45
2022-10-23T22:57:08.524Z,2.10
2022-10-23T22:58:58.837Z,2.40
2022-10-23T23:00:50.088Z,2.15
2022-10-23T23:02:40.584Z,2.40
2022-10-23T23:04:37.706Z,2.10
2022-10-23T23:06:29.437Z,2.58
2022-10-23T23:08:19.788Z,2.50
2022-10-23T23:10:11.583Z,2.45
2022-10-23T23:12:01.793Z,2.03
2022-10-23T23:13:52.650Z,2.85
2022-10-23T23:15:43.177Z,2.78
2022-10-23T23:17:33.295Z,2.70
2022-10-23T23:19:23.932Z,2.67
2022-10-23T23:21:14.677Z,2.67
2022-10-23T23:23:05.434Z,3.30
2022-10-23T23:24:55.825Z,3.58
2022-10-23T23:26:48.098Z,3.40
2022-10-23T23:28:38.544Z,3.13
2022-10-23T23:30:28.877Z,3.72
2022-10-23T23:32:19.329Z,4.03
2022-10-23T23:34:09.795Z,3.88
2022-10-23T23:36:00.157Z,3.80
2022-10-23T23:37:50.647Z,3.85
2022-10-23T23:39:41.318Z,4.10
2022-10-23T23:41:31.740Z,3.80
2022-10-23T23:43:23.760Z,4.10
2022-10-23T23:45:15.230Z,4.40
2022-10-23T23:47:05.440Z,4.07
2022-10-23T23:48:56.449Z,4.72
2022-10-23T23:50:47.056Z,4.22
2022-10-23T23:52:37.790Z,4.18
2022-10-23T23:54:28.375Z,4.75
2022-10-23T23:56:19.438Z,4.25
2022-10-23T23:58:10.314Z,3.90
